createdAt,value
2023-02-03T00:02:25.226Z,13.23
2023-02-03T00:04:52.783Z,12.35
2023-02-03T00:07:20.552Z,12.02
2023-02-03T00:09:47.955Z,15.93
2023-02-03T00:12:15.474Z,16.58
2023-02-03T00:14:42.853Z,10.55
2023-02-03T00:17:10.179Z,10.93
2023-02-03T00:19:37.495Z,9.27
2023-02-03T00:22:04.900Z,10.02
2023-02-03T00:24:32.374Z,10.35
2023-02-03T00:26:59.857Z,8.80
2023-02-03T00:29:28.135Z,8.40
2023-02-03T00:31:55.777Z,7.72
2023-02-03T00:34:23.462Z,7.32
2023-02-03T00:36:51.009Z,12.05
2023-02-03T00:39:18.331Z,8.68
2023-02-03T00:41:47.245Z,7.53
2023-02-03T00:44:15.143Z,9.60
2023-02-03T00:46:45.568Z,5.35
2023-02-03T00:49:12.927Z,4.88
2023-02-03T00:51:40.495Z,6.35
2023-02-03T00:54:08.165Z,3.47
2023-02-03T00:56:35.601Z,2.95
2023-02-03T00:59:03.179Z,3.47
2023-02-03T01:01:32.074Z,3.75
2023-02-03T01:04:00.174Z,4.82
2023-02-03T01:06:28.737Z,2.67
2023-02-03T01:08:56.220Z,2.17
2023-02-03T01:11:29.974Z,5.50
2023-02-03T01:14:01.816Z,3.00
2023-02-03T01:16:46.913Z,3.28
2023-02-03T01:19:14.986Z,2.35
2023-02-03T01:21:42.588Z,3.03
2023-02-03T01:24:10.086Z,2.55
2023-02-03T01:26:39.594Z,3.28
2023-02-03T01:29:08.449Z,1.40
2023-02-03T01:31:39.995Z,1.35
2023-02-03T01:34:13.359Z,1.83
2023-02-03T01:36:41.207Z,1.63
2023-02-03T01:39:08.603Z,2.38
2023-02-03T01:41:38.593Z,2.33
2023-02-03T01:44:43.064Z,1.95
2023-02-03T01:47:19.518Z,1.55
2023-02-03T01:50:19.949Z,3.50
2023-02-03T01:52:58.668Z,1.40
2023-02-03T01:55:32.093Z,1.20
2023-02-03T01:58:16.622Z,1.90
2023-02-03T02:00:44.605Z,1.23
2023-02-03T02:03:13.613Z,1.77
2023-02-03T02:05:50.468Z,2.08
2023-02-03T02:08:22.356Z,1.20
2023-02-03T02:10:50.594Z,1.58
2023-02-03T02:13:20.270Z,2.47
2023-02-03T02:16:03.339Z,2.95
2023-02-03T02:19:06.279Z,1.90
2023-02-03T02:22:01.840Z,3.22
2023-02-03T02:25:29.914Z,1.73
2023-02-03T02:28:18.805Z,1.08
2023-02-03T02:31:02.061Z,1.98
2023-02-03T02:33:43.264Z,2.60
2023-02-03T02:37:08.001Z,1.40
2023-02-03T02:40:19.119Z,1.52
2023-02-03T02:43:21.841Z,6.47
2023-02-03T02:45:54.226Z,1.98
2023-02-03T02:48:46.752Z,2.97
2023-02-03T02:51:15.938Z,6.10
2023-02-03T02:53:52.930Z,2.70
2023-02-03T02:56:22.538Z,3.60
2023-02-03T02:58:51.371Z,3.78
2023-02-03T03:01:19.511Z,5.15
2023-02-03T03:03:47.015Z,3.58
2023-02-03T03:06:26.623Z,1.58
2023-02-03T03:09:05.006Z,2.08
2023-02-03T03:11:43.270Z,1.67
2023-02-03T03:14:15.876Z,2.50
2023-02-03T03:16:51.511Z,2.30
2023-02-03T03:19:25.807Z,1.13
2023-02-03T03:22:01.809Z,2.63
2023-02-03T03:24:35.407Z,2.55
2023-02-03T03:27:13.639Z,2.88
2023-02-03T03:30:11.355Z,2.97
2023-02-03T03:32:39.489Z,2.55
2023-02-03T03:35:08.138Z,1.70
2023-02-03T03:37:57.367Z,3.83
2023-02-03T03:40:38.760Z,2.03
2023-02-03T03:43:20.587Z,2.72
2023-02-03T03:45:58.389Z,1.60
2023-02-03T03:48:37.599Z,2.85
2023-02-03T03:51:49.647Z,2.30
2023-02-03T03:54:22.268Z,3.05
2023-02-03T03:57:15.667Z,1.85
2023-02-03T03:59:48.751Z,2.55
2023-02-03T04:02:19.127Z,5.90
2023-02-03T04:04:48.406Z,3.05
2023-02-03T04:07:16.362Z,3.50
2023-02-03T04:09:43.948Z,3.28
2023-02-03T04:12:23.275Z,2.55
2023-02-03T04:14:50.854Z,1.60
2023-02-03T04:17:20.400Z,4.50
2023-02-03T04:19:49.084Z,2.58
2023-02-03T04:22:16.509Z,1.95
2023-02-03T04:24:44.127Z,3.25
2023-02-03T04:27:11.502Z,4.30
2023-02-03T04:29:38.921Z,2.05
2023-02-03T04:32:06.372Z,1.85
2023-02-03T04:34:34.061Z,2.00
2023-02-03T04:37:01.642Z,2.40
2023-02-03T04:39:29.341Z,2.15
2023-02-03T04:41:57.297Z,3.05
2023-02-03T04:44:24.802Z,1.73
2023-02-03T04:46:52.212Z,1.92
2023-02-03T04:49:31.716Z,2.55
2023-02-03T04:51:59.345Z,4.28
2023-02-03T04:54:26.942Z,4.25
2023-02-03T04:56:54.343Z,12.48
2023-02-03T04:59:21.823Z,12.73
2023-02-03T05:01:49.273Z,7.43
2023-02-03T05:04:16.876Z,6.05
2023-02-03T05:06:44.458Z,4.28
2023-02-03T05:09:11.870Z,2.63
2023-02-03T05:11:39.636Z,3.88
2023-02-03T05:14:08.050Z,3.20
2023-02-03T05:16:35.624Z,6.60
2023-02-03T05:19:03.237Z,3.97
2023-02-03T05:21:30.697Z,4.70
2023-02-03T05:23:58.360Z,2.53
2023-02-03T05:26:28.394Z,3.80
2023-02-03T05:28:57.673Z,4.43
2023-02-03T05:31:25.708Z,4.07
2023-02-03T05:33:53.308Z,3.17
2023-02-03T05:36:20.938Z,2.63
2023-02-03T05:38:50.698Z,2.60
2023-02-03T05:41:36.555Z,3.50
2023-02-03T05:44:04.342Z,5.10
2023-02-03T05:46:31.847Z,6.93
2023-02-03T05:49:02.123Z,5.90
2023-02-03T05:51:29.633Z,6.75
2023-02-03T05:53:58.711Z,9.18
2023-02-03T05:56:26.526Z,11.35
2023-02-03T05:58:53.954Z,8.18
2023-02-03T06:01:21.447Z,7.38
2023-02-03T06:03:49.364Z,11.95
2023-02-03T06:06:17.966Z,12.60
2023-02-03T06:08:45.557Z,10.85
2023-02-03T06:11:12.945Z,8.73
2023-02-03T06:13:40.506Z,13.98
2023-02-03T06:16:08.195Z,15.70
2023-02-03T06:18:37.497Z,7.72
2023-02-03T06:21:05.375Z,11.98
2023-02-03T06:23:32.854Z,10.60
2023-02-03T06:26:03.153Z,8.30
2023-02-03T06:28:30.662Z,5.82
2023-02-03T06:30:58.227Z,8.23
2023-02-03T06:33:26.000Z,9.40
2023-02-03T06:35:54.950Z,11.23
2023-02-03T06:38:22.384Z,14.48
2023-02-03T06:40:49.997Z,9.48
2023-02-03T06:43:17.741Z,17.48
2023-02-03T06:45:48.134Z,6.40
2023-02-03T06:48:16.191Z,26.65
2023-02-03T06:50:46.436Z,12.88
2023-02-03T06:53:14.807Z,16.00
2023-02-03T06:55:44.250Z,11.13
2023-02-03T06:58:11.640Z,12.93
2023-02-03T07:00:39.000Z,12.75
2023-02-03T07:03:06.452Z,7.10
2023-02-03T07:05:36.967Z,14.38
2023-02-03T07:08:04.594Z,10.82
2023-02-03T07:10:32.244Z,6.93
2023-02-03T07:13:07.471Z,11.57
2023-02-03T07:15:35.683Z,14.15
2023-02-03T07:18:03.119Z,9.45
2023-02-03T07:20:32.581Z,9.48
2023-02-03T07:23:02.669Z,4.05
2023-02-03T07:25:31.160Z,9.07
2023-02-03T07:27:58.547Z,3.92
2023-02-03T07:30:29.333Z,4.45
2023-02-03T07:32:57.214Z,11.65
2023-02-03T07:35:25.469Z,6.78
2023-02-03T07:37:53.633Z,12.40
2023-02-03T07:40:21.330Z,8.23
2023-02-03T07:42:50.263Z,12.90
2023-02-03T07:45:19.022Z,6.95
2023-02-03T07:47:46.474Z,9.65
2023-02-03T07:50:13.830Z,7.65
2023-02-03T07:52:41.339Z,4.85
2023-02-03T07:55:09.690Z,10.10
2023-02-03T07:57:37.446Z,5.25
2023-02-03T08:00:07.526Z,8.85
2023-02-03T08:02:44.215Z,8.35
2023-02-03T08:05:13.004Z,7.63
2023-02-03T08:07:41.265Z,6.63
2023-02-03T08:10:11.348Z,2.35
2023-02-03T08:12:39.147Z,5.22
2023-02-03T08:15:07.650Z,2.85
2023-02-03T08:17:35.373Z,4.78
2023-02-03T08:20:02.919Z,1.88
2023-02-03T08:22:31.006Z,3.58
2023-02-03T08:24:58.457Z,2.67
2023-02-03T08:27:26.459Z,1.83
2023-02-03T08:29:56.529Z,2.60
2023-02-03T08:32:27.598Z,3.03
2023-02-03T08:34:55.345Z,8.65
2023-02-03T08:37:28.472Z,2.25
2023-02-03T08:40:00.201Z,2.78
2023-02-03T08:42:28.412Z,1.60
2023-02-03T08:44:56.393Z,2.25
2023-02-03T08:47:24.458Z,3.70
2023-02-03T08:49:52.103Z,2.35
2023-02-03T08:52:19.955Z,1.50
2023-02-03T08:54:48.308Z,2.45
2023-02-03T08:57:16.267Z,1.15
2023-02-03T08:59:45.959Z,1.73
2023-02-03T09:02:19.454Z,1.55
2023-02-03T09:04:49.322Z,3.90
2023-02-03T09:07:17.090Z,8.55
2023-02-03T09:09:45.933Z,1.67
2023-02-03T09:12:13.586Z,3.67
2023-02-03T09:14:41.310Z,2.35
2023-02-03T09:17:10.139Z,0.90
2023-02-03T09:19:37.937Z,1.23
2023-02-03T09:22:05.944Z,1.35
2023-02-03T09:24:33.955Z,4.38
2023-02-03T09:27:01.611Z,0.80
2023-02-03T09:29:29.270Z,4.78
2023-02-03T09:31:56.905Z,2.05
2023-02-03T09:34:24.590Z,1.05
2023-02-03T09:36:52.244Z,1.40
2023-02-03T09:39:19.900Z,0.90
2023-02-03T09:42:34.113Z,2.60
2023-02-03T09:45:20.723Z,4.43
2023-02-03T09:47:54.277Z,6.00
2023-02-03T09:50:26.010Z,5.20
2023-02-03T09:52:54.746Z,4.53
2023-02-03T09:55:35.966Z,8.35
2023-02-03T09:58:18.598Z,9.57
2023-02-03T10:01:02.884Z,8.18
2023-02-03T10:04:02.414Z,11.75
2023-02-03T10:06:36.653Z,10.32
2023-02-03T10:09:28.707Z,12.00
2023-02-03T10:12:20.159Z,16.75
2023-02-03T10:15:16.083Z,14.25
2023-02-03T10:18:10.579Z,17.10
2023-02-03T10:21:30.720Z,12.52
2023-02-03T10:23:59.581Z,12.95
2023-02-03T10:26:29.640Z,10.85
2023-02-03T10:29:07.239Z,9.98
2023-02-03T10:31:37.662Z,7.72
2023-02-03T10:34:15.303Z,8.25
2023-02-03T10:36:48.426Z,7.55
2023-02-03T10:39:50.011Z,7.03
2023-02-03T10:42:22.375Z,4.85
2023-02-03T10:45:00.576Z,4.32
2023-02-03T10:47:38.394Z,5.78
2023-02-03T10:50:22.603Z,7.30
2023-02-03T10:52:50.363Z,7.10
2023-02-03T10:55:38.155Z,5.45
2023-02-03T10:58:23.352Z,5.57
2023-02-03T11:00:59.296Z,3.60
2023-02-03T11:03:29.765Z,4.22
2023-02-03T11:06:17.922Z,9.18
2023-02-03T11:08:48.780Z,3.75
2023-02-03T11:11:29.258Z,6.03
2023-02-03T11:14:17.397Z,2.80
2023-02-03T11:16:47.446Z,14.15
2023-02-03T11:19:21.230Z,12.43
2023-02-03T11:21:56.692Z,8.18
2023-02-03T11:24:33.769Z,8.88
2023-02-03T11:27:18.777Z,7.47
2023-02-03T11:30:17.283Z,10.60
2023-02-03T11:32:47.225Z,12.52
2023-02-03T11:35:23.918Z,7.30
2023-02-03T11:37:58.691Z,8.20
2023-02-03T11:40:30.471Z,8.65
2023-02-03T11:42:58.019Z,14.85
2023-02-03T11:45:42.259Z,10.90
2023-02-03T11:48:39.084Z,8.30
2023-02-03T11:51:49.190Z,24.23
2023-02-03T11:54:31.041Z,45.38
2023-02-03T11:57:28.711Z,46.90
2023-02-03T12:00:18.063Z,51.95
2023-02-03T12:03:12.296Z,49.53
2023-02-03T12:06:13.121Z,47.65
2023-02-03T12:08:55.991Z,57.13
2023-02-03T12:12:00.310Z,45.13
2023-02-03T12:15:18.814Z,55.10
2023-02-03T12:18:26.684Z,52.50
2023-02-03T12:21:44.438Z,42.20
2023-02-03T12:24:43.570Z,50.42
2023-02-03T12:27:33.171Z,43.78
2023-02-03T12:30:14.898Z,41.17
2023-02-03T12:32:47.950Z,32.80
2023-02-03T12:35:39.582Z,40.50
2023-02-03T12:38:35.032Z,37.90
2023-02-03T12:41:19.320Z,36.92
2023-02-03T12:43:50.918Z,33.50
2023-02-03T12:46:31.675Z,36.53
2023-02-03T12:49:40.571Z,34.00
2023-02-03T12:52:23.728Z,30.63
2023-02-03T12:55:22.764Z,29.35
2023-02-03T12:58:07.672Z,32.65
2023-02-03T13:00:59.035Z,24.15
2023-02-03T13:03:52.201Z,25.55
2023-02-03T13:06:31.197Z,27.33
2023-02-03T13:09:38.266Z,19.52
2023-02-03T13:12:50.607Z,30.55
2023-02-03T13:15:33.224Z,29.92
2023-02-03T13:18:29.822Z,20.13
2023-02-03T13:20:57.728Z,31.52
2023-02-03T13:23:28.861Z,23.65
2023-02-03T13:26:20.460Z,28.08
2023-02-03T13:29:19.484Z,23.55
2023-02-03T13:32:07.566Z,24.83
2023-02-03T13:35:24.786Z,27.35
2023-02-03T13:38:40.035Z,22.52
2023-02-03T13:41:52.636Z,34.50
2023-02-03T13:44:28.671Z,30.55
2023-02-03T13:46:59.517Z,34.78
2023-02-03T13:49:34.511Z,23.88
2023-02-03T13:52:02.648Z,30.38
2023-02-03T13:54:43.936Z,25.98
2023-02-03T13:57:28.796Z,30.90
2023-02-03T13:59:56.379Z,23.17
2023-02-03T14:02:42.532Z,20.58
2023-02-03T14:05:44.793Z,23.23
2023-02-03T14:08:26.858Z,20.92
2023-02-03T14:11:34.682Z,22.00
2023-02-03T14:14:08.015Z,23.17
2023-02-03T14:16:50.013Z,17.23
2023-02-03T14:19:33.575Z,18.92
2023-02-03T14:22:10.180Z,13.00
2023-02-03T14:24:44.583Z,12.93
2023-02-03T14:27:28.199Z,16.60
2023-02-03T14:30:15.561Z,15.77
2023-02-03T14:33:00.150Z,11.63
2023-02-03T14:35:37.361Z,11.48
2023-02-03T14:38:14.334Z,17.10
2023-02-03T14:41:05.172Z,13.60
2023-02-03T14:44:01.799Z,11.95
2023-02-03T14:47:09.713Z,11.70
2023-02-03T14:49:43.450Z,11.50
2023-02-03T14:52:46.286Z,17.10
2023-02-03T14:55:52.193Z,10.07
2023-02-03T14:58:36.079Z,10.93
2023-02-03T15:01:08.534Z,12.23
2023-02-03T15:03:38.050Z,10.20
2023-02-03T15:06:06.480Z,16.60
2023-02-03T15:08:47.697Z,15.95
2023-02-03T15:11:45.070Z,13.55
2023-02-03T15:14:27.994Z,17.13
2023-02-03T15:17:01.595Z,16.92
2023-02-03T15:19:39.712Z,14.25
2023-02-03T15:22:20.805Z,13.07
2023-02-03T15:24:51.173Z,12.55
2023-02-03T15:27:25.743Z,12.18
2023-02-03T15:29:54.501Z,10.35
2023-02-03T15:32:37.036Z,12.07
2023-02-03T15:35:11.590Z,12.75
2023-02-03T15:38:18.593Z,13.43
2023-02-03T15:40:53.517Z,10.05
2023-02-03T15:43:42.751Z,12.18
2023-02-03T15:46:29.710Z,9.77
2023-02-03T15:49:01.165Z,14.52
2023-02-03T15:51:37.351Z,12.35
2023-02-03T15:54:14.970Z,9.00
2023-02-03T15:57:01.221Z,19.67
2023-02-03T15:59:38.719Z,13.32
2023-02-03T16:02:18.178Z,11.07
2023-02-03T16:04:46.796Z,9.05
2023-02-03T16:07:29.903Z,18.50
2023-02-03T16:10:00.080Z,13.18
2023-02-03T16:12:29.697Z,14.68
2023-02-03T16:14:59.865Z,7.13
2023-02-03T16:17:41.704Z,9.07
2023-02-03T16:20:12.349Z,11.35
2023-02-03T16:23:00.702Z,13.27
2023-02-03T16:25:32.112Z,13.10
2023-02-03T16:28:35.692Z,14.85
2023-02-03T16:31:37.753Z,16.95
2023-02-03T16:34:36.950Z,21.73
2023-02-03T16:37:42.802Z,17.55
2023-02-03T16:40:37.691Z,15.95
2023-02-03T16:43:24.462Z,25.30
2023-02-03T16:46:15.614Z,30.55
2023-02-03T16:49:01.635Z,22.13
2023-02-03T16:51:39.749Z,22.70
2023-02-03T16:54:10.837Z,17.85
2023-02-03T16:56:38.718Z,20.48
2023-02-03T16:59:06.623Z,26.42
2023-02-03T17:01:34.284Z,13.95
2023-02-03T17:04:02.751Z,15.80
2023-02-03T17:06:30.982Z,18.45
2023-02-03T17:08:59.219Z,19.15
2023-02-03T17:11:27.410Z,15.30
2023-02-03T17:13:54.993Z,14.82
2023-02-03T17:16:25.518Z,16.33
2023-02-03T17:18:53.922Z,12.73
2023-02-03T17:21:26.191Z,19.60
2023-02-03T17:23:53.874Z,21.17
2023-02-03T17:26:21.802Z,12.80
2023-02-03T17:28:49.419Z,16.88
2023-02-03T17:31:20.078Z,23.75
2023-02-03T17:33:53.698Z,21.58
2023-02-03T17:36:22.122Z,45.08
2023-02-03T17:55:33.262Z,150.82
2023-02-03T17:58:01.292Z,136.45
2023-02-03T18:00:29.115Z,132.60
2023-02-03T18:02:57.752Z,121.57
2023-02-03T18:05:25.543Z,109.88
2023-02-03T18:07:53.089Z,99.97
2023-02-03T18:10:21.806Z,92.72
2023-02-03T18:12:49.584Z,94.20
2023-02-03T18:15:17.215Z,81.28
2023-02-03T18:17:44.824Z,83.22
2023-02-03T18:20:13.766Z,78.30
2023-02-03T18:22:41.301Z,81.63
2023-02-03T18:25:09.828Z,72.63
2023-02-03T18:27:37.413Z,73.55
2023-02-03T18:30:05.567Z,66.78
2023-02-03T18:32:32.980Z,61.40
2023-02-03T18:35:01.071Z,67.10
2023-02-03T18:37:28.862Z,56.72
2023-02-03T18:39:56.273Z,53.58
2023-02-03T18:42:23.789Z,54.35
2023-02-03T18:44:51.466Z,50.90
2023-02-03T18:47:18.952Z,50.85
2023-02-03T18:49:48.182Z,50.08
2023-02-03T18:52:16.003Z,52.75
2023-02-03T18:54:43.580Z,47.08
2023-02-03T18:57:14.222Z,42.80
2023-02-03T18:59:42.200Z,41.72
2023-02-03T19:02:11.493Z,43.60
2023-02-03T19:04:38.994Z,38.88
2023-02-03T19:07:06.856Z,40.40
2023-02-03T19:09:34.928Z,36.45
2023-02-03T19:12:03.279Z,35.72
2023-02-03T19:14:30.908Z,36.55
2023-02-03T19:16:58.572Z,38.05
2023-02-03T19:19:29.283Z,35.38
2023-02-03T19:21:58.680Z,38.80
2023-02-03T19:24:27.440Z,30.10
2023-02-03T19:26:55.287Z,33.63
2023-02-03T19:29:23.091Z,37.55
2023-02-03T19:31:51.888Z,29.00
2023-02-03T19:34:19.471Z,29.10
2023-02-03T19:36:50.035Z,29.88
2023-02-03T19:39:18.865Z,27.27
2023-02-03T19:41:49.573Z,26.75
2023-02-03T19:44:17.035Z,27.15
2023-02-03T19:46:44.650Z,24.42
2023-02-03T19:49:13.609Z,22.10
2023-02-03T19:51:45.182Z,23.08
2023-02-03T19:54:15.687Z,21.27
2023-02-03T19:56:44.453Z,25.02
2023-02-03T19:59:12.078Z,24.65
2023-02-03T20:01:39.735Z,23.45
2023-02-03T20:04:07.785Z,20.35
2023-02-03T20:06:35.714Z,23.35
2023-02-03T20:09:04.445Z,21.38
2023-02-03T20:11:32.122Z,22.75
2023-02-03T20:13:59.901Z,20.52
2023-02-03T20:16:30.706Z,16.73
2023-02-03T20:19:01.339Z,18.17
2023-02-03T20:21:28.862Z,21.88
2023-02-03T20:23:56.297Z,17.33
2023-02-03T20:26:24.542Z,23.13
2023-02-03T20:28:52.275Z,26.50
2023-02-03T20:31:20.151Z,23.17
2023-02-03T20:33:47.999Z,23.63
2023-02-03T20:36:15.584Z,25.35
2023-02-03T20:38:43.363Z,25.00
2023-02-03T20:41:12.938Z,28.38
2023-02-03T20:43:40.972Z,23.38
2023-02-03T20:46:16.458Z,25.77
2023-02-03T20:48:44.755Z,25.40
2023-02-03T20:51:14.786Z,22.15
2023-02-03T20:53:52.787Z,25.33
2023-02-03T20:56:22.077Z,31.65
2023-02-03T20:58:49.724Z,30.42
2023-02-03T21:01:22.759Z,33.20
2023-02-03T21:04:09.093Z,31.80
2023-02-03T21:06:37.069Z,23.38
2023-02-03T21:09:20.227Z,26.52
2023-02-03T21:11:47.696Z,22.25
2023-02-03T21:14:22.668Z,25.77
2023-02-03T21:16:51.451Z,22.88
2023-02-03T21:19:29.722Z,24.50
2023-02-03T21:21:57.942Z,21.52
2023-02-03T21:24:36.889Z,17.52
2023-02-03T21:27:23.211Z,30.35
2023-02-03T21:29:55.847Z,54.60
2023-02-03T21:32:31.530Z,56.03
2023-02-03T21:35:03.353Z,64.35
2023-02-03T21:37:40.117Z,52.08
2023-02-03T21:40:34.942Z,45.67
2023-02-03T21:43:03.539Z,40.50
2023-02-03T21:45:38.676Z,38.47
2023-02-03T21:48:40.638Z,39.90
2023-02-03T21:51:26.737Z,35.40
2023-02-03T21:54:24.194Z,34.03
2023-02-03T21:56:52.022Z,34.88
2023-02-03T21:59:33.663Z,31.20
2023-02-03T22:02:06.693Z,31.27
2023-02-03T22:04:34.427Z,32.20
2023-02-03T22:07:02.017Z,31.88
2023-02-03T22:09:29.722Z,23.73
2023-02-03T22:11:57.396Z,24.52
2023-02-03T22:14:25.080Z,27.60
2023-02-03T22:16:52.842Z,27.13
2023-02-03T22:19:22.796Z,41.15
2023-02-03T22:21:51.593Z,43.45
2023-02-03T22:24:19.037Z,52.08
2023-02-03T22:26:46.402Z,56.45
2023-02-03T22:29:13.843Z,53.08
2023-02-03T22:31:42.955Z,60.63
2023-02-03T22:34:10.535Z,60.30
2023-02-03T22:36:38.339Z,61.05
2023-02-03T22:39:06.027Z,66.45
2023-02-03T22:41:33.371Z,63.15
2023-02-03T22:44:00.890Z,65.07
2023-02-03T22:46:28.580Z,69.85
2023-02-03T22:48:56.240Z,53.47
2023-02-03T22:51:23.816Z,55.67
2023-02-03T22:53:51.339Z,56.08
2023-02-03T22:56:18.801Z,53.05
2023-02-03T22:58:46.172Z,50.60
2023-02-03T23:01:14.053Z,54.50
2023-02-03T23:03:41.536Z,46.28
2023-02-03T23:06:08.775Z,44.58
2023-02-03T23:08:36.165Z,44.08
2023-02-03T23:11:03.800Z,42.47
2023-02-03T23:13:31.473Z,41.33
2023-02-03T23:15:59.119Z,40.63
2023-02-03T23:18:26.644Z,43.40
2023-02-03T23:20:54.359Z,39.83
2023-02-03T23:23:22.111Z,40.28
2023-02-03T23:25:49.708Z,32.13
2023-02-03T23:28:17.354Z,28.80
2023-02-03T23:30:45.064Z,32.75
2023-02-03T23:33:12.758Z,23.33
2023-02-03T23:35:46.655Z,23.00
2023-02-03T23:38:18.350Z,25.27
2023-02-03T23:40:45.972Z,21.95
2023-02-03T23:43:13.925Z,21.40
2023-02-03T23:45:41.593Z,20.85
2023-02-03T23:48:09.525Z,19.85
2023-02-03T23:50:37.183Z,19.48
2023-02-03T23:53:05.055Z,18.85
2023-02-03T23:55:32.522Z,17.40
2023-02-03T23:58:00.036Z,15.68
